sensor_id;sensor_type;location;lat;lon;timestamp;temperature;humidity
10986;DHT22;5546;48.714;8.738;2022-09-12T00:01:24;15.10;99.90
10986;DHT22;5546;48.714;8.738;2022-09-12T00:03:51;15.20;99.90
10986;DHT22;5546;48.714;8.738;2022-09-12T00:06:37;15.10;99.90
10986;DHT22;5546;48.714;8.738;2022-09-12T00:09:08;14.90;99.90
10986;DHT22;5546;48.714;8.738;2022-09-12T00:11:35;15.00;99.90
10986;DHT22;5546;48.714;8.738;2022-09-12T00:14:02;14.70;99.90
10986;DHT22;5546;48.714;8.738;2022-09-12T00:16:31;14.70;99.90
10986;DHT22;5546;48.714;8.738;2022-09-12T00:18:56;14.50;99.90
10986;DHT22;5546;48.714;8.738;2022-09-12T00:21:22;14.60;99.90
10986;DHT22;5546;48.714;8.738;2022-09-12T00:23:49;14.50;99.90
10986;DHT22;5546;48.714;8.738;2022-09-12T00:26:16;14.50;99.90
10986;DHT22;5546;48.714;8.738;2022-09-12T00:28:42;14.80;99.90
10986;DHT22;5546;48.714;8.738;2022-09-12T00:31:11;14.90;99.90
10986;DHT22;5546;48.714;8.738;2022-09-12T00:33:38;15.00;99.90
10986;DHT22;5546;48.714;8.738;2022-09-12T00:36:06;15.00;99.90
10986;DHT22;5546;48.714;8.738;2022-09-12T00:38:32;15.30;99.90
10986;DHT22;5546;48.714;8.738;2022-09-12T00:40:57;15.40;99.90
10986;DHT22;5546;48.714;8.738;2022-09-12T00:45:56;15.40;99.90
10986;DHT22;5546;48.714;8.738;2022-09-12T00:48:28;15.10;99.90
10986;DHT22;5546;48.714;8.738;2022-09-12T00:50:56;14.80;99.90
10986;DHT22;5546;48.714;8.738;2022-09-12T00:53:22;15.00;99.90
10986;DHT22;5546;48.714;8.738;2022-09-12T00:55:49;14.80;99.90
10986;DHT22;5546;48.714;8.738;2022-09-12T00:58:22;14.80;99.90
10986;DHT22;5546;48.714;8.738;2022-09-12T01:00:49;14.60;99.90
10986;DHT22;5546;48.714;8.738;2022-09-12T01:03:17;14.50;99.90
10986;DHT22;5546;48.714;8.738;2022-09-12T01:06:02;14.50;99.90
10986;DHT22;5546;48.714;8.738;2022-09-12T01:08:30;14.40;99.90
10986;DHT22;5546;48.714;8.738;2022-09-12T01:10:57;14.40;99.90
10986;DHT22;5546;48.714;8.738;2022-09-12T01:13:22;14.40;99.90
10986;DHT22;5546;48.714;8.738;2022-09-12T01:15:48;14.10;99.90
10986;DHT22;5546;48.714;8.738;2022-09-12T01:18:58;14.40;99.90
10986;DHT22;5546;48.714;8.738;2022-09-12T01:21:24;14.30;99.90
10986;DHT22;5546;48.714;8.738;2022-09-12T01:27:10;14.30;99.90
10986;DHT22;5546;48.714;8.738;2022-09-12T01:32:34;14.70;99.90
10986;DHT22;5546;48.714;8.738;2022-09-12T01:35:17;14.90;99.90
10986;DHT22;5546;48.714;8.738;2022-09-12T01:37:55;14.70;99.90
10986;DHT22;5546;48.714;8.738;2022-09-12T01:40:34;14.40;99.90
10986;DHT22;5546;48.714;8.738;2022-09-12T01:43:23;14.60;99.90
10986;DHT22;5546;48.714;8.738;2022-09-12T01:45:58;14.80;99.90
10986;DHT22;5546;48.714;8.738;2022-09-12T01:48:29;14.60;99.90
10986;DHT22;5546;48.714;8.738;2022-09-12T01:51:09;14.60;99.90
10986;DHT22;5546;48.714;8.738;2022-09-12T01:53:40;14.60;99.90
10986;DHT22;5546;48.714;8.738;2022-09-12T01:56:17;14.80;99.90
10986;DHT22;5546;48.714;8.738;2022-09-12T01:58:54;15.10;99.90
10986;DHT22;5546;48.714;8.738;2022-09-12T02:01:28;15.40;99.90
10986;DHT22;5546;48.714;8.738;2022-09-12T02:04:05;15.40;99.90
10986;DHT22;5546;48.714;8.738;2022-09-12T02:06:46;15.60;99.40
10986;DHT22;5546;48.714;8.738;2022-09-12T02:09:29;15.60;99.70
10986;DHT22;5546;48.714;8.738;2022-09-12T02:11:59;15.80;99.20
10986;DHT22;5546;48.714;8.738;2022-09-12T02:14:29;15.60;99.40
10986;DHT22;5546;48.714;8.738;2022-09-12T02:19:36;15.00;99.90
10986;DHT22;5546;48.714;8.738;2022-09-12T02:22:05;15.10;99.90
10986;DHT22;5546;48.714;8.738;2022-09-12T02:24:42;15.40;99.70
10986;DHT22;5546;48.714;8.738;2022-09-12T02:29:36;15.70;98.40
10986;DHT22;5546;48.714;8.738;2022-09-12T02:32:15;15.60;98.70
10986;DHT22;5546;48.714;8.738;2022-09-12T02:39:55;15.60;99.00
10986;DHT22;5546;48.714;8.738;2022-09-12T02:42:21;15.50;98.40
10986;DHT22;5546;48.714;8.738;2022-09-12T02:44:49;15.50;98.70
10986;DHT22;5546;48.714;8.738;2022-09-12T02:47:22;15.60;98.60
10986;DHT22;5546;48.714;8.738;2022-09-12T02:49:48;15.30;98.70
10986;DHT22;5546;48.714;8.738;2022-09-12T02:52:14;15.30;98.90
10986;DHT22;5546;48.714;8.738;2022-09-12T02:54:41;15.50;98.50
10986;DHT22;5546;48.714;8.738;2022-09-12T02:57:17;15.30;98.80
10986;DHT22;5546;48.714;8.738;2022-09-12T02:59:43;15.20;99.00
10986;DHT22;5546;48.714;8.738;2022-09-12T03:21:51;15.20;98.30
10986;DHT22;5546;48.714;8.738;2022-09-12T03:24:31;15.20;98.00
10986;DHT22;5546;48.714;8.738;2022-09-12T03:27:19;15.20;98.30
10986;DHT22;5546;48.714;8.738;2022-09-12T03:29:47;14.70;99.30
10986;DHT22;5546;48.714;8.738;2022-09-12T03:32:13;14.70;99.50
10986;DHT22;5546;48.714;8.738;2022-09-12T03:34:38;15.00;99.30
10986;DHT22;5546;48.714;8.738;2022-09-12T03:37:04;15.10;99.00
10986;DHT22;5546;48.714;8.738;2022-09-12T03:39:30;15.00;99.00
10986;DHT22;5546;48.714;8.738;2022-09-12T03:41:55;14.80;99.10
10986;DHT22;5546;48.714;8.738;2022-09-12T03:44:21;14.70;99.50
10986;DHT22;5546;48.714;8.738;2022-09-12T03:46:47;14.80;99.10
10986;DHT22;5546;48.714;8.738;2022-09-12T03:49:13;14.90;99.20
10986;DHT22;5546;48.714;8.738;2022-09-12T03:51:39;15.10;98.80
10986;DHT22;5546;48.714;8.738;2022-09-12T03:54:05;14.80;98.90
10986;DHT22;5546;48.714;8.738;2022-09-12T03:56:31;15.00;98.90
10986;DHT22;5546;48.714;8.738;2022-09-12T03:58:56;14.90;99.10
10986;DHT22;5546;48.714;8.738;2022-09-12T04:01:23;14.60;99.30
10986;DHT22;5546;48.714;8.738;2022-09-12T04:03:50;14.60;99.00
10986;DHT22;5546;48.714;8.738;2022-09-12T04:06:18;14.70;99.10
10986;DHT22;5546;48.714;8.738;2022-09-12T04:08:47;14.70;98.90
10986;DHT22;5546;48.714;8.738;2022-09-12T04:11:15;14.90;98.70
10986;DHT22;5546;48.714;8.738;2022-09-12T04:13:42;14.90;99.00
10986;DHT22;5546;48.714;8.738;2022-09-12T04:16:08;15.10;98.20
10986;DHT22;5546;48.714;8.738;2022-09-12T04:18:34;15.20;98.40
10986;DHT22;5546;48.714;8.738;2022-09-12T04:21:12;15.40;97.60
10986;DHT22;5546;48.714;8.738;2022-09-12T04:23:38;15.00;97.90
10986;DHT22;5546;48.714;8.738;2022-09-12T04:26:04;15.00;98.20
10986;DHT22;5546;48.714;8.738;2022-09-12T04:28:34;14.30;99.50
10986;DHT22;5546;48.714;8.738;2022-09-12T04:31:05;14.20;99.50
10986;DHT22;5546;48.714;8.738;2022-09-12T04:33:32;14.20;99.80
10986;DHT22;5546;48.714;8.738;2022-09-12T04:36:12;14.40;99.80
10986;DHT22;5546;48.714;8.738;2022-09-12T04:38:42;14.10;99.70
10986;DHT22;5546;48.714;8.738;2022-09-12T04:41:13;14.00;99.90
10986;DHT22;5546;48.714;8.738;2022-09-12T04:43:40;13.90;99.90
10986;DHT22;5546;48.714;8.738;2022-09-12T04:46:09;14.00;99.90
10986;DHT22;5546;48.714;8.738;2022-09-12T04:48:35;14.00;99.90
10986;DHT22;5546;48.714;8.738;2022-09-12T04:51:13;13.90;99.90
10986;DHT22;5546;48.714;8.738;2022-09-12T04:53:39;13.90;99.90
10986;DHT22;5546;48.714;8.738;2022-09-12T04:56:07;14.30;99.90
10986;DHT22;5546;48.714;8.738;2022-09-12T04:58:33;14.30;99.90
10986;DHT22;5546;48.714;8.738;2022-09-12T05:01:04;14.70;99.00
10986;DHT22;5546;48.714;8.738;2022-09-12T05:03:30;14.50;98.90
10986;DHT22;5546;48.714;8.738;2022-09-12T05:05:55;14.60;98.70
10986;DHT22;5546;48.714;8.738;2022-09-12T05:08:21;14.60;99.00
10986;DHT22;5546;48.714;8.738;2022-09-12T05:10:46;14.40;99.00
10986;DHT22;5546;48.714;8.738;2022-09-12T05:13:12;14.40;99.10
10986;DHT22;5546;48.714;8.738;2022-09-12T05:15:37;14.40;99.10
10986;DHT22;5546;48.714;8.738;2022-09-12T05:18:04;14.30;99.10
10986;DHT22;5546;48.714;8.738;2022-09-12T05:20:32;14.10;99.40
10986;DHT22;5546;48.714;8.738;2022-09-12T05:22:58;14.20;99.40
10986;DHT22;5546;48.714;8.738;2022-09-12T05:25:24;14.20;99.20
10986;DHT22;5546;48.714;8.738;2022-09-12T05:27:52;14.00;99.60
10986;DHT22;5546;48.714;8.738;2022-09-12T05:30:17;13.50;99.90
10986;DHT22;5546;48.714;8.738;2022-09-12T05:32:43;13.70;99.90
10986;DHT22;5546;48.714;8.738;2022-09-12T05:35:08;13.40;99.90
10986;DHT22;5546;48.714;8.738;2022-09-12T05:37:34;13.70;99.90
10986;DHT22;5546;48.714;8.738;2022-09-12T05:39:59;13.90;99.90
10986;DHT22;5546;48.714;8.738;2022-09-12T05:42:29;14.10;99.90
10986;DHT22;5546;48.714;8.738;2022-09-12T05:44:54;14.30;99.10
10986;DHT22;5546;48.714;8.738;2022-09-12T05:49:46;14.30;99.20
10986;DHT22;5546;48.714;8.738;2022-09-12T05:52:13;14.10;99.20
10986;DHT22;5546;48.714;8.738;2022-09-12T05:54:38;13.80;99.80
10986;DHT22;5546;48.714;8.738;2022-09-12T05:57:05;13.70;99.90
10986;DHT22;5546;48.714;8.738;2022-09-12T05:59:31;13.60;99.90
10986;DHT22;5546;48.714;8.738;2022-09-12T06:01:56;13.50;99.90
10986;DHT22;5546;48.714;8.738;2022-09-12T06:04:22;13.50;99.90
10986;DHT22;5546;48.714;8.738;2022-09-12T06:06:48;13.50;99.90
10986;DHT22;5546;48.714;8.738;2022-09-12T06:09:14;13.50;99.90
10986;DHT22;5546;48.714;8.738;2022-09-12T06:11:40;13.40;99.90
10986;DHT22;5546;48.714;8.738;2022-09-12T06:14:07;13.10;99.90
10986;DHT22;5546;48.714;8.738;2022-09-12T06:16:34;13.50;99.90
10986;DHT22;5546;48.714;8.738;2022-09-12T06:19:03;13.40;99.90
10986;DHT22;5546;48.714;8.738;2022-09-12T06:21:29;13.40;99.90
10986;DHT22;5546;48.714;8.738;2022-09-12T06:23:58;13.50;99.90
10986;DHT22;5546;48.714;8.738;2022-09-12T06:26:24;13.40;99.90
10986;DHT22;5546;48.714;8.738;2022-09-12T06:28:51;13.80;99.90
10986;DHT22;5546;48.714;8.738;2022-09-12T06:31:20;13.40;99.90
10986;DHT22;5546;48.714;8.738;2022-09-12T06:33:48;13.40;99.90
10986;DHT22;5546;48.714;8.738;2022-09-12T06:36:16;13.40;99.90
10986;DHT22;5546;48.714;8.738;2022-09-12T06:38:43;13.20;99.90
10986;DHT22;5546;48.714;8.738;2022-09-12T06:41:11;13.90;99.90
10986;DHT22;5546;48.714;8.738;2022-09-12T06:43:39;13.90;99.90
10986;DHT22;5546;48.714;8.738;2022-09-12T06:46:04;14.20;99.90
10986;DHT22;5546;48.714;8.738;2022-09-12T06:48:30;14.50;99.20
10986;DHT22;5546;48.714;8.738;2022-09-12T06:50:56;14.50;99.60
10986;DHT22;5546;48.714;8.738;2022-09-12T06:53:23;14.50;99.30
10986;DHT22;5546;48.714;8.738;2022-09-12T06:56:10;14.70;99.20
10986;DHT22;5546;48.714;8.738;2022-09-12T06:58:36;15.00;98.60
10986;DHT22;5546;48.714;8.738;2022-09-12T07:01:08;15.30;98.00
10986;DHT22;5546;48.714;8.738;2022-09-12T07:03:35;15.40;98.00
10986;DHT22;5546;48.714;8.738;2022-09-12T07:06:07;15.70;97.60
10986;DHT22;5546;48.714;8.738;2022-09-12T07:08:33;15.30;98.20
10986;DHT22;5546;48.714;8.738;2022-09-12T07:11:11;15.40;98.00
10986;DHT22;5546;48.714;8.738;2022-09-12T07:13:38;15.30;98.40
10986;DHT22;5546;48.714;8.738;2022-09-12T07:16:04;15.80;97.50
10986;DHT22;5546;48.714;8.738;2022-09-12T07:18:31;16.10;97.20
10986;DHT22;5546;48.714;8.738;2022-09-12T07:21:01;18.80;93.60
10986;DHT22;5546;48.714;8.738;2022-09-12T07:23:27;19.00;93.50
10986;DHT22;5546;48.714;8.738;2022-09-12T07:25:54;20.40;91.00
10986;DHT22;5546;48.714;8.738;2022-09-12T07:28:22;21.60;87.50
10986;DHT22;5546;48.714;8.738;2022-09-12T07:30:47;22.90;83.10
10986;DHT22;5546;48.714;8.738;2022-09-12T07:33:13;22.00;82.20
10986;DHT22;5546;48.714;8.738;2022-09-12T07:35:39;22.70;82.30
10986;DHT22;5546;48.714;8.738;2022-09-12T07:38:04;23.90;78.40
10986;DHT22;5546;48.714;8.738;2022-09-12T07:40:30;25.50;73.40
10986;DHT22;5546;48.714;8.738;2022-09-12T07:42:55;26.20;70.50
10986;DHT22;5546;48.714;8.738;2022-09-12T07:45:21;25.70;70.00
10986;DHT22;5546;48.714;8.738;2022-09-12T07:47:46;26.20;69.80
10986;DHT22;5546;48.714;8.738;2022-09-12T07:50:12;27.80;66.40
10986;DHT22;5546;48.714;8.738;2022-09-12T07:52:37;28.50;62.60
10986;DHT22;5546;48.714;8.738;2022-09-12T07:55:03;29.00;61.50
10986;DHT22;5546;48.714;8.738;2022-09-12T07:57:29;29.90;58.60
10986;DHT22;5546;48.714;8.738;2022-09-12T07:59:54;30.60;57.70
10986;DHT22;5546;48.714;8.738;2022-09-12T08:02:20;31.10;55.90
10986;DHT22;5546;48.714;8.738;2022-09-12T08:04:48;30.00;57.10
10986;DHT22;5546;48.714;8.738;2022-09-12T08:07:14;30.20;57.70
10986;DHT22;5546;48.714;8.738;2022-09-12T08:09:40;30.70;56.80
10986;DHT22;5546;48.714;8.738;2022-09-12T08:12:05;30.70;56.70
10986;DHT22;5546;48.714;8.738;2022-09-12T08:14:31;30.40;57.30
10986;DHT22;5546;48.714;8.738;2022-09-12T08:16:56;30.20;57.50
10986;DHT22;5546;48.714;8.738;2022-09-12T08:19:22;30.20;58.50
10986;DHT22;5546;48.714;8.738;2022-09-12T08:21:48;30.20;57.20
10986;DHT22;5546;48.714;8.738;2022-09-12T08:24:13;30.10;58.30
10986;DHT22;5546;48.714;8.738;2022-09-12T08:26:40;30.10;58.40
10986;DHT22;5546;48.714;8.738;2022-09-12T08:29:05;29.30;60.00
10986;DHT22;5546;48.714;8.738;2022-09-12T08:31:31;30.20;58.50
10986;DHT22;5546;48.714;8.738;2022-09-12T08:34:05;31.30;56.30
10986;DHT22;5546;48.714;8.738;2022-09-12T08:36:30;31.80;55.90
10986;DHT22;5546;48.714;8.738;2022-09-12T08:39:02;32.20;55.30
10986;DHT22;5546;48.714;8.738;2022-09-12T08:46:39;33.30;52.90
10986;DHT22;5546;48.714;8.738;2022-09-12T08:49:12;31.30;53.40
10986;DHT22;5546;48.714;8.738;2022-09-12T08:51:39;29.50;56.60
10986;DHT22;5546;48.714;8.738;2022-09-12T08:54:18;28.70;58.30
10986;DHT22;5546;48.714;8.738;2022-09-12T08:56:44;28.20;59.00
10986;DHT22;5546;48.714;8.738;2022-09-12T08:59:10;28.20;57.90
10986;DHT22;5546;48.714;8.738;2022-09-12T09:01:40;29.20;58.10
10986;DHT22;5546;48.714;8.738;2022-09-12T09:10:13;29.70;57.00
10986;DHT22;5546;48.714;8.738;2022-09-12T09:15:42;29.00;56.90
10986;DHT22;5546;48.714;8.738;2022-09-12T09:18:19;28.10;58.10
10986;DHT22;5546;48.714;8.738;2022-09-12T09:21:00;28.10;59.00
10986;DHT22;5546;48.714;8.738;2022-09-12T09:23:31;28.20;58.60
10986;DHT22;5546;48.714;8.738;2022-09-12T09:26:26;28.10;57.90
10986;DHT22;5546;48.714;8.738;2022-09-12T09:29:04;27.40;59.40
10986;DHT22;5546;48.714;8.738;2022-09-12T09:31:34;27.30;59.20
10986;DHT22;5546;48.714;8.738;2022-09-12T09:34:09;27.20;59.20
10986;DHT22;5546;48.714;8.738;2022-09-12T09:39:39;26.90;61.40
10986;DHT22;5546;48.714;8.738;2022-09-12T09:42:34;26.40;60.80
10986;DHT22;5546;48.714;8.738;2022-09-12T09:45:13;26.00;61.20
10986;DHT22;5546;48.714;8.738;2022-09-12T09:47:42;26.40;62.00
10986;DHT22;5546;48.714;8.738;2022-09-12T09:50:13;26.40;62.10
10986;DHT22;5546;48.714;8.738;2022-09-12T09:52:39;28.20;57.10
10986;DHT22;5546;48.714;8.738;2022-09-12T09:55:15;29.50;54.90
10986;DHT22;5546;48.714;8.738;2022-09-12T09:57:43;29.60;55.60
10986;DHT22;5546;48.714;8.738;2022-09-12T10:00:33;33.00;49.10
10986;DHT22;5546;48.714;8.738;2022-09-12T10:08:20;34.20;47.30
10986;DHT22;5546;48.714;8.738;2022-09-12T10:10:57;34.40;46.00
10986;DHT22;5546;48.714;8.738;2022-09-12T10:16:19;35.20;47.20
10986;DHT22;5546;48.714;8.738;2022-09-12T10:18:47;36.70;43.00
10986;DHT22;5546;48.714;8.738;2022-09-12T10:23:51;37.60;39.10
10986;DHT22;5546;48.714;8.738;2022-09-12T10:26:24;37.80;38.40
10986;DHT22;5546;48.714;8.738;2022-09-12T10:28:53;35.20;41.40
10986;DHT22;5546;48.714;8.738;2022-09-12T10:31:26;35.10;42.30
10986;DHT22;5546;48.714;8.738;2022-09-12T10:33:55;35.90;43.40
10986;DHT22;5546;48.714;8.738;2022-09-12T10:36:22;37.50;40.00
10986;DHT22;5546;48.714;8.738;2022-09-12T10:38:50;38.30;39.20
10986;DHT22;5546;48.714;8.738;2022-09-12T10:41:18;38.40;38.90
10986;DHT22;5546;48.714;8.738;2022-09-12T10:43:44;36.90;40.00
10986;DHT22;5546;48.714;8.738;2022-09-12T10:48:41;37.80;39.80
10986;DHT22;5546;48.714;8.738;2022-09-12T10:54:04;38.40;37.90
10986;DHT22;5546;48.714;8.738;2022-09-12T10:56:33;37.80;37.80
10986;DHT22;5546;48.714;8.738;2022-09-12T10:59:22;37.60;39.10
10986;DHT22;5546;48.714;8.738;2022-09-12T11:12:23;36.70;40.80
10986;DHT22;5546;48.714;8.738;2022-09-12T11:17:57;38.80;40.20
10986;DHT22;5546;48.714;8.738;2022-09-12T11:23:43;38.70;35.50
10986;DHT22;5546;48.714;8.738;2022-09-12T11:26:38;38.00;36.30
10986;DHT22;5546;48.714;8.738;2022-09-12T11:29:32;38.20;37.00
10986;DHT22;5546;48.714;8.738;2022-09-12T11:32:09;39.90;34.60
10986;DHT22;5546;48.714;8.738;2022-09-12T11:37:33;39.10;35.00
10986;DHT22;5546;48.714;8.738;2022-09-12T11:40:51;38.90;36.10
10986;DHT22;5546;48.714;8.738;2022-09-12T11:42:56;39.50;33.80
10986;DHT22;5546;48.714;8.738;2022-09-12T11:45:53;36.70;35.60
10986;DHT22;5546;48.714;8.738;2022-09-12T11:48:37;37.80;36.40
10986;DHT22;5546;48.714;8.738;2022-09-12T11:51:06;38.60;34.80
10986;DHT22;5546;48.714;8.738;2022-09-12T11:53:41;39.20;33.00
10986;DHT22;5546;48.714;8.738;2022-09-12T11:56:14;40.30;32.10
10986;DHT22;5546;48.714;8.738;2022-09-12T11:58:44;40.80;31.40
10986;DHT22;5546;48.714;8.738;2022-09-12T12:03:44;39.40;31.70
10986;DHT22;5546;48.714;8.738;2022-09-12T12:06:17;39.60;32.30
10986;DHT22;5546;48.714;8.738;2022-09-12T12:08:47;39.60;31.50
10986;DHT22;5546;48.714;8.738;2022-09-12T12:11:34;40.30;34.00
10986;DHT22;5546;48.714;8.738;2022-09-12T12:14:13;41.80;34.40
10986;DHT22;5546;48.714;8.738;2022-09-12T12:16:40;42.60;31.20
10986;DHT22;5546;48.714;8.738;2022-09-12T12:21:46;39.10;34.60
10986;DHT22;5546;48.714;8.738;2022-09-12T12:24:16;39.10;35.50
10986;DHT22;5546;48.714;8.738;2022-09-12T12:27:04;40.20;30.70
10986;DHT22;5546;48.714;8.738;2022-09-12T12:29:46;40.40;31.70
10986;DHT22;5546;48.714;8.738;2022-09-12T12:34:45;39.30;30.50
10986;DHT22;5546;48.714;8.738;2022-09-12T12:45:48;39.90;33.70
10986;DHT22;5546;48.714;8.738;2022-09-12T12:47:50;41.20;32.00
10986;DHT22;5546;48.714;8.738;2022-09-12T12:52:51;42.20;28.80
10986;DHT22;5546;48.714;8.738;2022-09-12T12:55:26;41.10;29.00
10986;DHT22;5546;48.714;8.738;2022-09-12T12:57:55;39.60;31.10
10986;DHT22;5546;48.714;8.738;2022-09-12T13:05:52;40.50;33.30
10986;DHT22;5546;48.714;8.738;2022-09-12T13:11:05;41.40;29.10
10986;DHT22;5546;48.714;8.738;2022-09-12T13:13:35;41.20;28.90
10986;DHT22;5546;48.714;8.738;2022-09-12T13:16:02;41.30;31.40
10986;DHT22;5546;48.714;8.738;2022-09-12T13:18:40;41.00;30.10
10986;DHT22;5546;48.714;8.738;2022-09-12T13:21:19;41.00;32.80
10986;DHT22;5546;48.714;8.738;2022-09-12T13:24:03;41.10;33.70
10986;DHT22;5546;48.714;8.738;2022-09-12T13:26:34;40.70;32.60
10986;DHT22;5546;48.714;8.738;2022-09-12T13:31:36;39.30;32.10
10986;DHT22;5546;48.714;8.738;2022-09-12T13:34:04;39.20;30.70
10986;DHT22;5546;48.714;8.738;2022-09-12T13:39:56;37.60;36.10
10986;DHT22;5546;48.714;8.738;2022-09-12T13:42:41;37.30;32.30
10986;DHT22;5546;48.714;8.738;2022-09-12T13:45:19;37.10;30.70
10986;DHT22;5546;48.714;8.738;2022-09-12T13:47:53;37.30;35.10
10986;DHT22;5546;48.714;8.738;2022-09-12T13:50:26;37.70;32.20
10986;DHT22;5546;48.714;8.738;2022-09-12T13:53:00;36.70;31.50
10986;DHT22;5546;48.714;8.738;2022-09-12T13:55:35;37.70;31.80
10986;DHT22;5546;48.714;8.738;2022-09-12T13:58:04;37.90;31.60
10986;DHT22;5546;48.714;8.738;2022-09-12T14:00:31;38.40;32.30
10986;DHT22;5546;48.714;8.738;2022-09-12T14:05:46;38.20;34.40
10986;DHT22;5546;48.714;8.738;2022-09-12T14:08:19;38.00;37.00
10986;DHT22;5546;48.714;8.738;2022-09-12T14:10:45;37.90;29.70
10986;DHT22;5546;48.714;8.738;2022-09-12T14:13:18;38.20;34.20
10986;DHT22;5546;48.714;8.738;2022-09-12T14:15:46;38.10;33.30
10986;DHT22;5546;48.714;8.738;2022-09-12T14:18:29;38.10;35.50
10986;DHT22;5546;48.714;8.738;2022-09-12T14:21:09;37.60;35.50
10986;DHT22;5546;48.714;8.738;2022-09-12T14:23:39;37.40;36.70
10986;DHT22;5546;48.714;8.738;2022-09-12T14:26:09;36.70;32.20
10986;DHT22;5546;48.714;8.738;2022-09-12T14:28:41;34.90;37.80
10986;DHT22;5546;48.714;8.738;2022-09-12T14:33:47;30.80;42.10
10986;DHT22;5546;48.714;8.738;2022-09-12T14:36:21;29.60;44.10
10986;DHT22;5546;48.714;8.738;2022-09-12T14:38:56;28.80;46.00
10986;DHT22;5546;48.714;8.738;2022-09-12T14:41:50;28.20;52.80
10986;DHT22;5546;48.714;8.738;2022-09-12T14:44:18;27.50;44.80
10986;DHT22;5546;48.714;8.738;2022-09-12T14:46:45;27.00;48.40
10986;DHT22;5546;48.714;8.738;2022-09-12T14:49:35;26.90;54.50
10986;DHT22;5546;48.714;8.738;2022-09-12T14:52:04;26.70;51.00
10986;DHT22;5546;48.714;8.738;2022-09-12T14:56:59;26.40;54.40
10986;DHT22;5546;48.714;8.738;2022-09-12T15:05:46;25.30;57.40
10986;DHT22;5546;48.714;8.738;2022-09-12T15:07:52;25.00;58.90
10986;DHT22;5546;48.714;8.738;2022-09-12T15:10:37;24.70;58.30
10986;DHT22;5546;48.714;8.738;2022-09-12T15:15:34;24.90;62.50
10986;DHT22;5546;48.714;8.738;2022-09-12T15:18:00;24.60;62.50
10986;DHT22;5546;48.714;8.738;2022-09-12T15:20:26;24.30;62.50
10986;DHT22;5546;48.714;8.738;2022-09-12T15:22:52;23.90;60.60
10986;DHT22;5546;48.714;8.738;2022-09-12T15:25:18;23.90;62.10
10986;DHT22;5546;48.714;8.738;2022-09-12T15:27:47;24.30;63.00
10986;DHT22;5546;48.714;8.738;2022-09-12T15:30:14;24.00;63.00
10986;DHT22;5546;48.714;8.738;2022-09-12T15:32:42;24.20;57.70
10986;DHT22;5546;48.714;8.738;2022-09-12T15:35:15;24.10;59.20
10986;DHT22;5546;48.714;8.738;2022-09-12T15:37:42;24.10;60.20
10986;DHT22;5546;48.714;8.738;2022-09-12T15:40:09;24.30;55.30
10986;DHT22;5546;48.714;8.738;2022-09-12T15:42:35;24.00;61.60
10986;DHT22;5546;48.714;8.738;2022-09-12T15:45:00;24.20;58.90
10986;DHT22;5546;48.714;8.738;2022-09-12T15:47:26;24.10;57.30
10986;DHT22;5546;48.714;8.738;2022-09-12T15:49:51;24.10;60.30
10986;DHT22;5546;48.714;8.738;2022-09-12T15:52:17;23.90;59.40
10986;DHT22;5546;48.714;8.738;2022-09-12T15:54:43;23.90;59.60
10986;DHT22;5546;48.714;8.738;2022-09-12T15:57:08;23.70;59.00
10986;DHT22;5546;48.714;8.738;2022-09-12T15:59:34;23.70;62.10
10986;DHT22;5546;48.714;8.738;2022-09-12T16:02:00;23.50;65.40
10986;DHT22;5546;48.714;8.738;2022-09-12T16:04:28;23.40;62.50
10986;DHT22;5546;48.714;8.738;2022-09-12T16:06:55;23.10;62.10
10986;DHT22;5546;48.714;8.738;2022-09-12T16:11:47;23.50;64.90
10986;DHT22;5546;48.714;8.738;2022-09-12T16:14:13;23.60;60.00
10986;DHT22;5546;48.714;8.738;2022-09-12T16:16:39;23.50;61.50
10986;DHT22;5546;48.714;8.738;2022-09-12T16:19:05;23.50;64.60
10986;DHT22;5546;48.714;8.738;2022-09-12T16:21:30;23.50;64.80
10986;DHT22;5546;48.714;8.738;2022-09-12T16:23:56;22.90;67.10
10986;DHT22;5546;48.714;8.738;2022-09-12T16:26:22;22.90;67.60
10986;DHT22;5546;48.714;8.738;2022-09-12T16:28:53;22.90;69.00
10986;DHT22;5546;48.714;8.738;2022-09-12T16:31:19;22.60;69.40
10986;DHT22;5546;48.714;8.738;2022-09-12T16:33:45;22.60;69.10
10986;DHT22;5546;48.714;8.738;2022-09-12T16:36:16;22.90;70.50
10986;DHT22;5546;48.714;8.738;2022-09-12T16:38:46;22.40;71.10
10986;DHT22;5546;48.714;8.738;2022-09-12T16:41:13;22.10;74.20
10986;DHT22;5546;48.714;8.738;2022-09-12T16:43:38;22.20;70.20
10986;DHT22;5546;48.714;8.738;2022-09-12T16:46:10;22.20;70.80
10986;DHT22;5546;48.714;8.738;2022-09-12T16:48:36;22.30;73.80
10986;DHT22;5546;48.714;8.738;2022-09-12T16:51:04;22.30;75.90
10986;DHT22;5546;48.714;8.738;2022-09-12T16:53:31;22.00;76.20
10986;DHT22;5546;48.714;8.738;2022-09-12T16:55:57;22.00;76.70
10986;DHT22;5546;48.714;8.738;2022-09-12T17:01:01;22.50;75.00
10986;DHT22;5546;48.714;8.738;2022-09-12T17:03:28;22.40;75.80
10986;DHT22;5546;48.714;8.738;2022-09-12T17:06:11;22.60;75.00
10986;DHT22;5546;48.714;8.738;2022-09-12T17:08:39;22.60;76.10
10986;DHT22;5546;48.714;8.738;2022-09-12T17:11:08;22.80;73.30
10986;DHT22;5546;48.714;8.738;2022-09-12T17:13:33;22.20;77.40
10986;DHT22;5546;48.714;8.738;2022-09-12T17:15:59;21.90;78.40
10986;DHT22;5546;48.714;8.738;2022-09-12T17:18:28;22.30;77.50
10986;DHT22;5546;48.714;8.738;2022-09-12T17:20:54;22.30;76.40
10986;DHT22;5546;48.714;8.738;2022-09-12T17:23:19;22.30;75.20
10986;DHT22;5546;48.714;8.738;2022-09-12T17:25:49;22.40;76.70
10986;DHT22;5546;48.714;8.738;2022-09-12T17:28:16;22.20;77.70
10986;DHT22;5546;48.714;8.738;2022-09-12T17:30:42;22.20;78.80
10986;DHT22;5546;48.714;8.738;2022-09-12T17:33:08;22.20;79.10
10986;DHT22;5546;48.714;8.738;2022-09-12T17:35:34;21.80;80.10
10986;DHT22;5546;48.714;8.738;2022-09-12T17:38:00;21.20;79.10
10986;DHT22;5546;48.714;8.738;2022-09-12T17:40:26;21.20;79.70
10986;DHT22;5546;48.714;8.738;2022-09-12T17:42:52;21.10;83.90
10986;DHT22;5546;48.714;8.738;2022-09-12T17:45:17;20.70;82.30
10986;DHT22;5546;48.714;8.738;2022-09-12T17:47:43;20.60;84.90
10986;DHT22;5546;48.714;8.738;2022-09-12T17:50:09;20.60;85.40
10986;DHT22;5546;48.714;8.738;2022-09-12T17:52:34;20.80;83.70
10986;DHT22;5546;48.714;8.738;2022-09-12T17:55:00;20.80;82.10
10986;DHT22;5546;48.714;8.738;2022-09-12T17:57:27;20.80;82.70
10986;DHT22;5546;48.714;8.738;2022-09-12T17:59:52;20.30;85.60
10986;DHT22;5546;48.714;8.738;2022-09-12T18:02:18;19.90;88.60
10986;DHT22;5546;48.714;8.738;2022-09-12T18:04:44;20.30;85.20
10986;DHT22;5546;48.714;8.738;2022-09-12T18:07:15;20.70;82.80
10986;DHT22;5546;48.714;8.738;2022-09-12T18:09:42;20.80;81.10
10986;DHT22;5546;48.714;8.738;2022-09-12T18:12:08;20.50;81.70
10986;DHT22;5546;48.714;8.738;2022-09-12T18:14:34;20.40;82.30
10986;DHT22;5546;48.714;8.738;2022-09-12T18:16:59;20.60;82.30
10986;DHT22;5546;48.714;8.738;2022-09-12T18:19:26;20.60;82.70
10986;DHT22;5546;48.714;8.738;2022-09-12T18:21:55;20.40;82.20
10986;DHT22;5546;48.714;8.738;2022-09-12T18:24:21;20.40;82.90
10986;DHT22;5546;48.714;8.738;2022-09-12T18:26:46;20.70;84.10
10986;DHT22;5546;48.714;8.738;2022-09-12T18:29:12;20.70;84.90